sensor_id;sensor_type;location;lat;lon;timestamp;temperature;humidity
75321;DHT22;63920;52.130;5.584;2022-12-11T00:01:13;1.10;99.90
75321;DHT22;63920;52.130;5.584;2022-12-11T00:03:39;1.10;99.90
75321;DHT22;63920;52.130;5.584;2022-12-11T00:06:07;1.10;99.90
75321;DHT22;63920;52.130;5.584;2022-12-11T00:08:33;1.20;99.90
75321;DHT22;63920;52.130;5.584;2022-12-11T00:10:59;0.90;99.90
75321;DHT22;63920;52.130;5.584;2022-12-11T00:13:24;1.10;99.90
75321;DHT22;63920;52.130;5.584;2022-12-11T00:15:50;1.10;99.90
75321;DHT22;63920;52.130;5.584;2022-12-11T00:18:16;1.20;99.90
75321;DHT22;63920;52.130;5.584;2022-12-11T00:20:41;1.20;99.90
75321;DHT22;63920;52.130;5.584;2022-12-11T00:23:07;1.20;99.90
75321;DHT22;63920;52.130;5.584;2022-12-11T00:25:32;1.30;99.90
75321;DHT22;63920;52.130;5.584;2022-12-11T00:27:58;1.30;99.90
75321;DHT22;63920;52.130;5.584;2022-12-11T00:30:24;1.30;99.90
75321;DHT22;63920;52.130;5.584;2022-12-11T00:32:52;1.20;99.90
75321;DHT22;63920;52.130;5.584;2022-12-11T00:35:19;1.30;99.90
75321;DHT22;63920;52.130;5.584;2022-12-11T00:37:45;1.30;99.90
75321;DHT22;63920;52.130;5.584;2022-12-11T00:40:10;1.30;99.90
75321;DHT22;63920;52.130;5.584;2022-12-11T00:42:36;1.20;99.90
75321;DHT22;63920;52.130;5.584;2022-12-11T00:45:02;1.30;99.90
75321;DHT22;63920;52.130;5.584;2022-12-11T00:47:28;1.30;99.90
75321;DHT22;63920;52.130;5.584;2022-12-11T00:49:53;1.30;99.90
75321;DHT22;63920;52.130;5.584;2022-12-11T00:52:19;1.30;99.90
75321;DHT22;63920;52.130;5.584;2022-12-11T00:54:44;1.30;99.90
75321;DHT22;63920;52.130;5.584;2022-12-11T00:57:10;1.30;99.90
75321;DHT22;63920;52.130;5.584;2022-12-11T00:59:35;1.30;99.90
75321;DHT22;63920;52.130;5.584;2022-12-11T01:02:01;1.30;99.90
75321;DHT22;63920;52.130;5.584;2022-12-11T01:04:27;1.40;99.90
75321;DHT22;63920;52.130;5.584;2022-12-11T01:06:52;1.40;99.90
75321;DHT22;63920;52.130;5.584;2022-12-11T01:09:18;1.40;99.90
75321;DHT22;63920;52.130;5.584;2022-12-11T01:12:02;1.40;99.90
75321;DHT22;63920;52.130;5.584;2022-12-11T01:14:28;1.40;99.90
75321;DHT22;63920;52.130;5.584;2022-12-11T01:16:53;1.40;99.90
75321;DHT22;63920;52.130;5.584;2022-12-11T01:19:19;1.40;99.90
75321;DHT22;63920;52.130;5.584;2022-12-11T01:21:44;1.50;99.90
75321;DHT22;63920;52.130;5.584;2022-12-11T01:24:10;1.50;99.90
75321;DHT22;63920;52.130;5.584;2022-12-11T01:26:35;1.50;99.90
75321;DHT22;63920;52.130;5.584;2022-12-11T01:29:01;1.60;99.90
75321;DHT22;63920;52.130;5.584;2022-12-11T01:31:26;1.50;99.90
75321;DHT22;63920;52.130;5.584;2022-12-11T01:33:55;1.60;99.90
75321;DHT22;63920;52.130;5.584;2022-12-11T01:36:22;1.60;99.90
75321;DHT22;63920;52.130;5.584;2022-12-11T01:38:48;1.60;99.90
75321;DHT22;63920;52.130;5.584;2022-12-11T01:41:16;1.50;99.90
75321;DHT22;63920;52.130;5.584;2022-12-11T01:43:58;1.50;99.90
75321;DHT22;63920;52.130;5.584;2022-12-11T01:46:24;1.50;99.90
75321;DHT22;63920;52.130;5.584;2022-12-11T01:48:50;1.50;99.90
75321;DHT22;63920;52.130;5.584;2022-12-11T01:51:16;1.50;99.90
75321;DHT22;63920;52.130;5.584;2022-12-11T01:53:45;1.50;99.90
75321;DHT22;63920;52.130;5.584;2022-12-11T01:56:13;1.50;99.90
75321;DHT22;63920;52.130;5.584;2022-12-11T01:58:41;1.50;99.90
75321;DHT22;63920;52.130;5.584;2022-12-11T02:01:12;1.50;99.90
75321;DHT22;63920;52.130;5.584;2022-12-11T02:03:38;1.50;99.90
75321;DHT22;63920;52.130;5.584;2022-12-11T02:06:04;1.50;99.90
75321;DHT22;63920;52.130;5.584;2022-12-11T02:08:30;1.50;99.90
75321;DHT22;63920;52.130;5.584;2022-12-11T02:11:05;1.50;99.90
75321;DHT22;63920;52.130;5.584;2022-12-11T02:13:51;1.50;99.90
75321;DHT22;63920;52.130;5.584;2022-12-11T02:16:30;1.50;99.90
75321;DHT22;63920;52.130;5.584;2022-12-11T02:19:02;1.50;99.90
75321;DHT22;63920;52.130;5.584;2022-12-11T02:21:37;1.50;99.90
75321;DHT22;63920;52.130;5.584;2022-12-11T02:32:14;1.50;99.90
75321;DHT22;63920;52.130;5.584;2022-12-11T02:35:44;1.50;99.90
75321;DHT22;63920;52.130;5.584;2022-12-11T02:37:56;1.50;99.90
75321;DHT22;63920;52.130;5.584;2022-12-11T02:40:27;1.50;99.90
75321;DHT22;63920;52.130;5.584;2022-12-11T02:42:55;1.50;99.90
75321;DHT22;63920;52.130;5.584;2022-12-11T02:45:23;1.50;99.90
75321;DHT22;63920;52.130;5.584;2022-12-11T02:47:51;1.50;99.90
75321;DHT22;63920;52.130;5.584;2022-12-11T02:50:19;1.60;99.90
75321;DHT22;63920;52.130;5.584;2022-12-11T02:52:47;1.60;99.90
75321;DHT22;63920;52.130;5.584;2022-12-11T02:55:14;1.50;99.90
75321;DHT22;63920;52.130;5.584;2022-12-11T02:57:59;1.50;99.90
75321;DHT22;63920;52.130;5.584;2022-12-11T03:00:26;1.50;99.90
75321;DHT22;63920;52.130;5.584;2022-12-11T03:02:51;1.50;99.90
75321;DHT22;63920;52.130;5.584;2022-12-11T03:05:17;1.60;99.90
75321;DHT22;63920;52.130;5.584;2022-12-11T03:07:43;1.60;99.90
75321;DHT22;63920;52.130;5.584;2022-12-11T03:10:11;1.60;99.90
75321;DHT22;63920;52.130;5.584;2022-12-11T03:12:41;1.60;99.90
75321;DHT22;63920;52.130;5.584;2022-12-11T03:15:11;1.60;99.90
75321;DHT22;63920;52.130;5.584;2022-12-11T03:20:45;1.60;99.90
75321;DHT22;63920;52.130;5.584;2022-12-11T03:23:41;1.60;99.90
75321;DHT22;63920;52.130;5.584;2022-12-11T03:26:08;1.60;99.90
75321;DHT22;63920;52.130;5.584;2022-12-11T03:31:09;1.60;99.90
75321;DHT22;63920;52.130;5.584;2022-12-11T03:33:41;1.70;99.90
75321;DHT22;63920;52.130;5.584;2022-12-11T03:36:11;1.70;99.90
75321;DHT22;63920;52.130;5.584;2022-12-11T03:38:46;1.70;99.90
75321;DHT22;63920;52.130;5.584;2022-12-11T03:41:17;1.70;99.90
75321;DHT22;63920;52.130;5.584;2022-12-11T03:43:44;1.70;99.90
75321;DHT22;63920;52.130;5.584;2022-12-11T03:46:12;2.50;99.90
75321;DHT22;63920;52.130;5.584;2022-12-11T03:48:40;1.70;99.90
75321;DHT22;63920;52.130;5.584;2022-12-11T03:51:08;1.70;99.90
75321;DHT22;63920;52.130;5.584;2022-12-11T03:53:35;1.70;99.90
75321;DHT22;63920;52.130;5.584;2022-12-11T03:56:03;1.70;99.90
75321;DHT22;63920;52.130;5.584;2022-12-11T03:58:29;1.70;99.90
75321;DHT22;63920;52.130;5.584;2022-12-11T04:00:55;1.70;99.90
75321;DHT22;63920;52.130;5.584;2022-12-11T04:03:21;1.70;99.90
75321;DHT22;63920;52.130;5.584;2022-12-11T04:05:48;1.80;99.90
75321;DHT22;63920;52.130;5.584;2022-12-11T04:08:15;1.80;99.90
75321;DHT22;63920;52.130;5.584;2022-12-11T04:10:41;1.80;99.90
75321;DHT22;63920;52.130;5.584;2022-12-11T04:13:07;1.80;99.90
75321;DHT22;63920;52.130;5.584;2022-12-11T04:15:33;1.80;99.90
75321;DHT22;63920;52.130;5.584;2022-12-11T04:17:59;1.80;99.90
75321;DHT22;63920;52.130;5.584;2022-12-11T04:20:43;2.00;99.90
75321;DHT22;63920;52.130;5.584;2022-12-11T04:23:27;1.70;99.90
75321;DHT22;63920;52.130;5.584;2022-12-11T04:26:18;1.70;99.90
75321;DHT22;63920;52.130;5.584;2022-12-11T04:28:45;1.70;99.90
75321;DHT22;63920;52.130;5.584;2022-12-11T04:31:12;1.70;99.90
75321;DHT22;63920;52.130;5.584;2022-12-11T04:33:38;1.80;99.90
75321;DHT22;63920;52.130;5.584;2022-12-11T04:36:05;1.70;99.90
75321;DHT22;63920;52.130;5.584;2022-12-11T04:38:30;1.70;99.90
75321;DHT22;63920;52.130;5.584;2022-12-11T04:41:11;1.80;99.90
75321;DHT22;63920;52.130;5.584;2022-12-11T04:43:38;1.80;99.90
75321;DHT22;63920;52.130;5.584;2022-12-11T04:46:12;1.80;99.90
75321;DHT22;63920;52.130;5.584;2022-12-11T04:48:38;1.80;99.90
75321;DHT22;63920;52.130;5.584;2022-12-11T04:51:05;1.90;99.90
75321;DHT22;63920;52.130;5.584;2022-12-11T04:53:31;1.90;99.90
75321;DHT22;63920;52.130;5.584;2022-12-11T04:55:56;1.90;99.90
75321;DHT22;63920;52.130;5.584;2022-12-11T04:58:23;1.80;99.90
75321;DHT22;63920;52.130;5.584;2022-12-11T05:00:49;1.90;99.90
75321;DHT22;63920;52.130;5.584;2022-12-11T05:03:15;1.80;99.90
75321;DHT22;63920;52.130;5.584;2022-12-11T05:05:46;1.90;99.90
75321;DHT22;63920;52.130;5.584;2022-12-11T05:08:12;1.80;99.90
75321;DHT22;63920;52.130;5.584;2022-12-11T05:10:38;1.90;99.90
75321;DHT22;63920;52.130;5.584;2022-12-11T05:13:03;1.90;99.90
75321;DHT22;63920;52.130;5.584;2022-12-11T05:15:29;1.90;99.90
75321;DHT22;63920;52.130;5.584;2022-12-11T05:17:54;1.90;99.90
75321;DHT22;63920;52.130;5.584;2022-12-11T05:20:20;1.80;99.90
75321;DHT22;63920;52.130;5.584;2022-12-11T05:22:45;2.30;99.90
75321;DHT22;63920;52.130;5.584;2022-12-11T05:25:11;1.90;99.90
75321;DHT22;63920;52.130;5.584;2022-12-11T05:27:36;1.80;99.90
75321;DHT22;63920;52.130;5.584;2022-12-11T05:30:03;1.70;99.90
75321;DHT22;63920;52.130;5.584;2022-12-11T05:32:28;1.70;99.90
75321;DHT22;63920;52.130;5.584;2022-12-11T05:34:54;1.70;99.90
75321;DHT22;63920;52.130;5.584;2022-12-11T05:37:20;1.70;99.90
75321;DHT22;63920;52.130;5.584;2022-12-11T05:39:45;1.60;99.90
75321;DHT22;63920;52.130;5.584;2022-12-11T05:42:11;1.70;99.90
75321;DHT22;63920;52.130;5.584;2022-12-11T05:44:36;1.60;99.90
75321;DHT22;63920;52.130;5.584;2022-12-11T05:47:02;1.70;99.90
75321;DHT22;63920;52.130;5.584;2022-12-11T05:49:28;1.60;99.90
75321;DHT22;63920;52.130;5.584;2022-12-11T05:51:53;1.60;99.90
75321;DHT22;63920;52.130;5.584;2022-12-11T05:54:19;1.60;99.90
75321;DHT22;63920;52.130;5.584;2022-12-11T05:56:44;1.70;99.90
75321;DHT22;63920;52.130;5.584;2022-12-11T05:59:10;1.70;99.90
75321;DHT22;63920;52.130;5.584;2022-12-11T06:01:38;1.80;99.90
75321;DHT22;63920;52.130;5.584;2022-12-11T06:04:04;1.80;99.90
75321;DHT22;63920;52.130;5.584;2022-12-11T06:06:31;1.70;99.90
75321;DHT22;63920;52.130;5.584;2022-12-11T06:08:58;1.60;99.90
75321;DHT22;63920;52.130;5.584;2022-12-11T06:11:29;1.70;99.90
75321;DHT22;63920;52.130;5.584;2022-12-11T06:13:56;1.70;99.90
75321;DHT22;63920;52.130;5.584;2022-12-11T06:16:22;1.70;99.90
75321;DHT22;63920;52.130;5.584;2022-12-11T06:18:48;1.80;99.90
75321;DHT22;63920;52.130;5.584;2022-12-11T06:21:20;1.80;99.90
75321;DHT22;63920;52.130;5.584;2022-12-11T06:23:47;1.70;99.90
75321;DHT22;63920;52.130;5.584;2022-12-11T06:26:14;1.70;99.90
75321;DHT22;63920;52.130;5.584;2022-12-11T06:28:40;1.80;99.90
75321;DHT22;63920;52.130;5.584;2022-12-11T06:31:06;1.70;99.90
75321;DHT22;63920;52.130;5.584;2022-12-11T06:33:32;1.70;99.90
75321;DHT22;63920;52.130;5.584;2022-12-11T06:36:06;1.70;99.90
75321;DHT22;63920;52.130;5.584;2022-12-11T06:38:32;1.60;99.90
75321;DHT22;63920;52.130;5.584;2022-12-11T06:40:59;1.60;99.90
75321;DHT22;63920;52.130;5.584;2022-12-11T06:43:25;1.50;99.90
75321;DHT22;63920;52.130;5.584;2022-12-11T06:45:51;1.60;99.90
75321;DHT22;63920;52.130;5.584;2022-12-11T06:48:18;1.60;99.90
75321;DHT22;63920;52.130;5.584;2022-12-11T06:50:43;1.60;99.90
75321;DHT22;63920;52.130;5.584;2022-12-11T06:53:10;1.60;99.90
75321;DHT22;63920;52.130;5.584;2022-12-11T06:55:37;1.60;99.90
75321;DHT22;63920;52.130;5.584;2022-12-11T06:58:02;1.60;99.90
75321;DHT22;63920;52.130;5.584;2022-12-11T07:00:28;1.60;99.90
75321;DHT22;63920;52.130;5.584;2022-12-11T07:02:53;1.60;99.90
75321;DHT22;63920;52.130;5.584;2022-12-11T07:05:19;1.70;99.90
75321;DHT22;63920;52.130;5.584;2022-12-11T07:07:45;1.60;99.90
75321;DHT22;63920;52.130;5.584;2022-12-11T07:10:11;1.60;99.80
75321;DHT22;63920;52.130;5.584;2022-12-11T07:12:37;1.60;99.80
75321;DHT22;63920;52.130;5.584;2022-12-11T07:15:04;1.60;99.80
75321;DHT22;63920;52.130;5.584;2022-12-11T07:17:30;1.60;99.70
75321;DHT22;63920;52.130;5.584;2022-12-11T07:19:56;1.50;99.80
75321;DHT22;63920;52.130;5.584;2022-12-11T07:22:21;1.60;99.70
75321;DHT22;63920;52.130;5.584;2022-12-11T07:24:47;1.60;99.80
75321;DHT22;63920;52.130;5.584;2022-12-11T07:27:13;1.60;99.80
75321;DHT22;63920;52.130;5.584;2022-12-11T07:29:38;1.60;99.80
75321;DHT22;63920;52.130;5.584;2022-12-11T07:32:04;1.60;99.80
75321;DHT22;63920;52.130;5.584;2022-12-11T07:34:30;1.60;99.70
75321;DHT22;63920;52.130;5.584;2022-12-11T07:36:55;1.60;99.60
75321;DHT22;63920;52.130;5.584;2022-12-11T07:39:21;1.60;99.40
75321;DHT22;63920;52.130;5.584;2022-12-11T07:41:46;1.50;99.20
75321;DHT22;63920;52.130;5.584;2022-12-11T07:44:12;1.50;99.40
75321;DHT22;63920;52.130;5.584;2022-12-11T07:46:38;1.50;99.40
75321;DHT22;63920;52.130;5.584;2022-12-11T07:49:05;1.50;99.40
75321;DHT22;63920;52.130;5.584;2022-12-11T07:51:32;1.50;99.60
75321;DHT22;63920;52.130;5.584;2022-12-11T07:54:01;1.50;99.70
75321;DHT22;63920;52.130;5.584;2022-12-11T07:56:28;1.50;99.70
75321;DHT22;63920;52.130;5.584;2022-12-11T07:58:54;1.60;99.70
75321;DHT22;63920;52.130;5.584;2022-12-11T08:01:24;1.60;99.70
75321;DHT22;63920;52.130;5.584;2022-12-11T08:03:50;1.60;99.70
75321;DHT22;63920;52.130;5.584;2022-12-11T08:06:17;1.60;99.70
75321;DHT22;63920;52.130;5.584;2022-12-11T08:08:42;1.50;99.70
75321;DHT22;63920;52.130;5.584;2022-12-11T08:11:13;1.50;99.70
75321;DHT22;63920;52.130;5.584;2022-12-11T08:13:38;1.40;99.80
75321;DHT22;63920;52.130;5.584;2022-12-11T08:16:06;1.40;99.90
75321;DHT22;63920;52.130;5.584;2022-12-11T08:18:33;1.40;99.80
75321;DHT22;63920;52.130;5.584;2022-12-11T08:21:04;1.40;99.90
75321;DHT22;63920;52.130;5.584;2022-12-11T08:23:30;1.40;99.90
75321;DHT22;63920;52.130;5.584;2022-12-11T08:25:55;1.50;99.90
75321;DHT22;63920;52.130;5.584;2022-12-11T08:28:21;1.50;99.90
75321;DHT22;63920;52.130;5.584;2022-12-11T08:30:46;1.50;99.90
75321;DHT22;63920;52.130;5.584;2022-12-11T08:33:12;1.50;99.90
75321;DHT22;63920;52.130;5.584;2022-12-11T08:35:38;1.50;99.90
75321;DHT22;63920;52.130;5.584;2022-12-11T08:38:04;1.50;99.80
75321;DHT22;63920;52.130;5.584;2022-12-11T08:40:29;1.50;99.90
75321;DHT22;63920;52.130;5.584;2022-12-11T08:42:55;1.50;99.80
75321;DHT22;63920;52.130;5.584;2022-12-11T08:45:20;1.50;99.50
75321;DHT22;63920;52.130;5.584;2022-12-11T08:47:46;1.40;99.60
75321;DHT22;63920;52.130;5.584;2022-12-11T08:50:12;1.30;99.80
75321;DHT22;63920;52.130;5.584;2022-12-11T08:52:37;1.40;99.80
75321;DHT22;63920;52.130;5.584;2022-12-11T08:55:03;1.40;99.70
75321;DHT22;63920;52.130;5.584;2022-12-11T08:57:29;1.30;99.80
75321;DHT22;63920;52.130;5.584;2022-12-11T08:59:54;1.30;99.60
75321;DHT22;63920;52.130;5.584;2022-12-11T09:02:20;1.40;99.80
75321;DHT22;63920;52.130;5.584;2022-12-11T09:04:46;1.30;99.80
75321;DHT22;63920;52.130;5.584;2022-12-11T09:07:11;1.40;99.80
75321;DHT22;63920;52.130;5.584;2022-12-11T09:09:37;1.40;99.60
75321;DHT22;63920;52.130;5.584;2022-12-11T09:12:03;1.30;99.50
75321;DHT22;63920;52.130;5.584;2022-12-11T09:14:29;1.40;99.60
75321;DHT22;63920;52.130;5.584;2022-12-11T09:16:54;1.40;99.40
75321;DHT22;63920;52.130;5.584;2022-12-11T09:19:20;1.40;99.30
75321;DHT22;63920;52.130;5.584;2022-12-11T09:21:45;1.30;99.50
75321;DHT22;63920;52.130;5.584;2022-12-11T09:24:12;1.30;99.40
75321;DHT22;63920;52.130;5.584;2022-12-11T09:26:38;1.30;99.60
75321;DHT22;63920;52.130;5.584;2022-12-11T09:29:05;1.30;99.60
75321;DHT22;63920;52.130;5.584;2022-12-11T09:31:33;1.30;99.50
75321;DHT22;63920;52.130;5.584;2022-12-11T09:34:07;1.30;99.50
75321;DHT22;63920;52.130;5.584;2022-12-11T09:36:33;1.30;99.60
75321;DHT22;63920;52.130;5.584;2022-12-11T09:39:04;1.30;99.60
75321;DHT22;63920;52.130;5.584;2022-12-11T09:41:52;1.40;99.80
75321;DHT22;63920;52.130;5.584;2022-12-11T09:44:41;1.40;99.60
75321;DHT22;63920;52.130;5.584;2022-12-11T09:50:32;1.50;99.60
75321;DHT22;63920;52.130;5.584;2022-12-11T09:53:03;1.50;99.50
75321;DHT22;63920;52.130;5.584;2022-12-11T10:04:09;1.60;99.70
75321;DHT22;63920;52.130;5.584;2022-12-11T10:12:38;1.60;99.30
75321;DHT22;63920;52.130;5.584;2022-12-11T10:17:39;1.60;99.30
75321;DHT22;63920;52.130;5.584;2022-12-11T10:20:33;1.60;99.20
75321;DHT22;63920;52.130;5.584;2022-12-11T10:23:02;1.70;99.00
75321;DHT22;63920;52.130;5.584;2022-12-11T10:25:31;1.70;98.90
75321;DHT22;63920;52.130;5.584;2022-12-11T10:27:58;1.70;98.90
75321;DHT22;63920;52.130;5.584;2022-12-11T10:30:26;1.70;98.90
75321;DHT22;63920;52.130;5.584;2022-12-11T10:33:22;1.70;99.20
75321;DHT22;63920;52.130;5.584;2022-12-11T10:35:54;1.70;99.40
75321;DHT22;63920;52.130;5.584;2022-12-11T10:38:30;1.70;99.20
75321;DHT22;63920;52.130;5.584;2022-12-11T10:41:05;1.70;99.10
75321;DHT22;63920;52.130;5.584;2022-12-11T10:43:38;1.70;99.20
75321;DHT22;63920;52.130;5.584;2022-12-11T10:46:11;1.70;99.20
75321;DHT22;63920;52.130;5.584;2022-12-11T10:48:51;1.70;99.00
75321;DHT22;63920;52.130;5.584;2022-12-11T10:51:21;1.80;99.20
75321;DHT22;63920;52.130;5.584;2022-12-11T10:53:52;1.80;99.00
75321;DHT22;63920;52.130;5.584;2022-12-11T10:56:27;1.80;99.10
75321;DHT22;63920;52.130;5.584;2022-12-11T10:58:55;1.80;99.30
75321;DHT22;63920;52.130;5.584;2022-12-11T11:01:23;1.90;99.30
75321;DHT22;63920;52.130;5.584;2022-12-11T11:06:22;1.80;99.10
75321;DHT22;63920;52.130;5.584;2022-12-11T11:08:51;1.90;99.00
75321;DHT22;63920;52.130;5.584;2022-12-11T11:11:30;1.90;99.00
75321;DHT22;63920;52.130;5.584;2022-12-11T11:14:12;1.90;99.00
75321;DHT22;63920;52.130;5.584;2022-12-11T11:16:39;1.90;99.30
75321;DHT22;63920;52.130;5.584;2022-12-11T11:19:06;1.90;99.50
75321;DHT22;63920;52.130;5.584;2022-12-11T11:21:33;1.90;99.40
75321;DHT22;63920;52.130;5.584;2022-12-11T11:23:59;1.90;99.30
75321;DHT22;63920;52.130;5.584;2022-12-11T11:26:25;1.90;99.30
75321;DHT22;63920;52.130;5.584;2022-12-11T11:28:54;1.90;99.40
75321;DHT22;63920;52.130;5.584;2022-12-11T11:31:29;1.90;99.40
75321;DHT22;63920;52.130;5.584;2022-12-11T11:33:57;1.90;99.50
75321;DHT22;63920;52.130;5.584;2022-12-11T11:36:26;1.90;99.40
75321;DHT22;63920;52.130;5.584;2022-12-11T11:44:34;2.00;99.50
75321;DHT22;63920;52.130;5.584;2022-12-11T11:47:14;2.00;99.90
75321;DHT22;63920;52.130;5.584;2022-12-11T11:50:21;2.00;99.80
75321;DHT22;63920;52.130;5.584;2022-12-11T11:53:09;2.00;99.90
75321;DHT22;63920;52.130;5.584;2022-12-11T11:55:51;2.10;99.60
75321;DHT22;63920;52.130;5.584;2022-12-11T11:58:25;2.40;99.50
75321;DHT22;63920;52.130;5.584;2022-12-11T12:00:55;2.10;99.50
75321;DHT22;63920;52.130;5.584;2022-12-11T12:03:23;2.10;99.60
75321;DHT22;63920;52.130;5.584;2022-12-11T12:11:42;2.10;99.20
75321;DHT22;63920;52.130;5.584;2022-12-11T12:17:16;2.10;99.30
75321;DHT22;63920;52.130;5.584;2022-12-11T12:25:17;2.00;99.40
75321;DHT22;63920;52.130;5.584;2022-12-11T12:28:05;2.10;99.40
75321;DHT22;63920;52.130;5.584;2022-12-11T12:31:00;2.10;99.30
75321;DHT22;63920;52.130;5.584;2022-12-11T12:39:26;2.00;99.50
75321;DHT22;63920;52.130;5.584;2022-12-11T12:42:18;2.10;99.40
75321;DHT22;63920;52.130;5.584;2022-12-11T12:47:26;2.10;99.60
75321;DHT22;63920;52.130;5.584;2022-12-11T12:49:53;2.10;99.60
75321;DHT22;63920;52.130;5.584;2022-12-11T12:52:32;2.10;99.50
75321;DHT22;63920;52.130;5.584;2022-12-11T12:55:12;2.10;99.60
75321;DHT22;63920;52.130;5.584;2022-12-11T12:57:51;2.10;99.90
75321;DHT22;63920;52.130;5.584;2022-12-11T13:01:01;2.20;99.60
75321;DHT22;63920;52.130;5.584;2022-12-11T13:03:25;2.10;99.20
75321;DHT22;63920;52.130;5.584;2022-12-11T13:06:03;2.10;99.20
75321;DHT22;63920;52.130;5.584;2022-12-11T13:08:48;2.20;99.20
75321;DHT22;63920;52.130;5.584;2022-12-11T13:11:16;2.20;98.90
75321;DHT22;63920;52.130;5.584;2022-12-11T13:13:46;2.20;98.70
75321;DHT22;63920;52.130;5.584;2022-12-11T13:18:47;2.20;98.80
75321;DHT22;63920;52.130;5.584;2022-12-11T13:23:54;2.20;98.90
75321;DHT22;63920;52.130;5.584;2022-12-11T13:26:32;2.20;98.90
75321;DHT22;63920;52.130;5.584;2022-12-11T13:28:58;2.20;99.00
75321;DHT22;63920;52.130;5.584;2022-12-11T13:31:38;2.20;99.00
75321;DHT22;63920;52.130;5.584;2022-12-11T13:34:22;2.20;99.20
75321;DHT22;63920;52.130;5.584;2022-12-11T13:36:50;2.20;99.10
75321;DHT22;63920;52.130;5.584;2022-12-11T13:39:25;2.20;99.50
75321;DHT22;63920;52.130;5.584;2022-12-11T13:41:55;2.20;99.10
75321;DHT22;63920;52.130;5.584;2022-12-11T13:44:26;2.20;99.10
75321;DHT22;63920;52.130;5.584;2022-12-11T13:46:54;2.20;99.50
75321;DHT22;63920;52.130;5.584;2022-12-11T13:49:27;2.20;99.20
75321;DHT22;63920;52.130;5.584;2022-12-11T13:51:57;2.20;99.20
75321;DHT22;63920;52.130;5.584;2022-12-11T13:54:23;2.20;99.30
75321;DHT22;63920;52.130;5.584;2022-12-11T13:56:57;2.20;99.30
75321;DHT22;63920;52.130;5.584;2022-12-11T13:59:34;2.20;99.30
75321;DHT22;63920;52.130;5.584;2022-12-11T14:04:43;2.10;99.70
75321;DHT22;63920;52.130;5.584;2022-12-11T14:07:09;2.10;99.30
75321;DHT22;63920;52.130;5.584;2022-12-11T14:09:41;2.10;99.20
75321;DHT22;63920;52.130;5.584;2022-12-11T14:12:15;2.10;99.30
75321;DHT22;63920;52.130;5.584;2022-12-11T14:14:46;2.10;99.30
75321;DHT22;63920;52.130;5.584;2022-12-11T14:17:14;2.10;99.40
75321;DHT22;63920;52.130;5.584;2022-12-11T14:19:48;2.00;99.50
75321;DHT22;63920;52.130;5.584;2022-12-11T14:22:32;2.10;99.70
75321;DHT22;63920;52.130;5.584;2022-12-11T14:25:00;2.10;99.60
75321;DHT22;63920;52.130;5.584;2022-12-11T14:27:28;2.10;99.50
75321;DHT22;63920;52.130;5.584;2022-12-11T14:29:55;2.10;99.50
75321;DHT22;63920;52.130;5.584;2022-12-11T14:32:27;2.10;99.50
75321;DHT22;63920;52.130;5.584;2022-12-11T14:34:55;2.20;99.50
75321;DHT22;63920;52.130;5.584;2022-12-11T14:37:22;2.10;99.30
75321;DHT22;63920;52.130;5.584;2022-12-11T14:40:01;2.20;99.40
75321;DHT22;63920;52.130;5.584;2022-12-11T14:42:35;2.20;99.30
75321;DHT22;63920;52.130;5.584;2022-12-11T14:45:11;2.20;99.40
75321;DHT22;63920;52.130;5.584;2022-12-11T14:47:41;2.20;99.60
75321;DHT22;63920;52.130;5.584;2022-12-11T14:50:15;2.20;99.50
75321;DHT22;63920;52.130;5.584;2022-12-11T14:52:47;2.20;99.50
75321;DHT22;63920;52.130;5.584;2022-12-11T14:55:20;2.20;99.40
75321;DHT22;63920;52.130;5.584;2022-12-11T14:57:48;2.20;99.30
75321;DHT22;63920;52.130;5.584;2022-12-11T15:03:02;2.10;99.40
75321;DHT22;63920;52.130;5.584;2022-12-11T15:05:29;2.10;99.50
75321;DHT22;63920;52.130;5.584;2022-12-11T15:10:35;2.10;99.40
75321;DHT22;63920;52.130;5.584;2022-12-11T15:13:03;2.10;99.30
75321;DHT22;63920;52.130;5.584;2022-12-11T15:15:37;2.10;99.30
75321;DHT22;63920;52.130;5.584;2022-12-11T15:18:20;2.10;99.40
75321;DHT22;63920;52.130;5.584;2022-12-11T15:20:53;2.00;99.30
75321;DHT22;63920;52.130;5.584;2022-12-11T15:23:19;2.10;99.40
75321;DHT22;63920;52.130;5.584;2022-12-11T15:25:58;2.10;99.50
75321;DHT22;63920;52.130;5.584;2022-12-11T15:28:34;2.10;99.60
75321;DHT22;63920;52.130;5.584;2022-12-11T15:31:06;2.10;99.50
75321;DHT22;63920;52.130;5.584;2022-12-11T15:33:32;2.00;99.70
75321;DHT22;63920;52.130;5.584;2022-12-11T15:36:05;2.00;99.90
75321;DHT22;63920;52.130;5.584;2022-12-11T15:38:38;2.10;99.60
75321;DHT22;63920;52.130;5.584;2022-12-11T15:41:15;2.00;99.60
75321;DHT22;63920;52.130;5.584;2022-12-11T15:43:41;2.20;99.70
75321;DHT22;63920;52.130;5.584;2022-12-11T15:46:08;2.30;99.60
75321;DHT22;63920;52.130;5.584;2022-12-11T15:48:33;2.40;99.60
75321;DHT22;63920;52.130;5.584;2022-12-11T15:50:59;2.50;99.50
75321;DHT22;63920;52.130;5.584;2022-12-11T15:53:24;2.60;99.00
75321;DHT22;63920;52.130;5.584;2022-12-11T15:55:50;2.60;98.50
75321;DHT22;63920;52.130;5.584;2022-12-11T15:58:18;2.50;98.10
75321;DHT22;63920;52.130;5.584;2022-12-11T16:00:44;2.50;98.20
75321;DHT22;63920;52.130;5.584;2022-12-11T16:03:15;2.60;98.20
75321;DHT22;63920;52.130;5.584;2022-12-11T16:05:42;2.60;97.50
75321;DHT22;63920;52.130;5.584;2022-12-11T16:08:15;2.60;97.30
75321;DHT22;63920;52.130;5.584;2022-12-11T16:10:42;2.50;97.30
75321;DHT22;63920;52.130;5.584;2022-12-11T16:13:12;2.50;97.20
75321;DHT22;63920;52.130;5.584;2022-12-11T16:15:42;2.40;97.20
75321;DHT22;63920;52.130;5.584;2022-12-11T16:18:12;2.40;97.50
75321;DHT22;63920;52.130;5.584;2022-12-11T16:20:43;2.40;97.20
75321;DHT22;63920;52.130;5.584;2022-12-11T16:23:10;2.30;97.20
75321;DHT22;63920;52.130;5.584;2022-12-11T16:25:37;2.40;97.20
75321;DHT22;63920;52.130;5.584;2022-12-11T16:28:04;2.40;97.30
75321;DHT22;63920;52.130;5.584;2022-12-11T16:30:30;2.40;97.20
75321;DHT22;63920;52.130;5.584;2022-12-11T16:32:55;2.40;97.10
75321;DHT22;63920;52.130;5.584;2022-12-11T16:35:22;2.40;97.10
75321;DHT22;63920;52.130;5.584;2022-12-11T16:37:49;2.40;97.30
75321;DHT22;63920;52.130;5.584;2022-12-11T16:40:15;2.30;97.40
75321;DHT22;63920;52.130;5.584;2022-12-11T16:42:41;2.40;97.80
75321;DHT22;63920;52.130;5.584;2022-12-11T16:45:16;2.40;97.50
75321;DHT22;63920;52.130;5.584;2022-12-11T16:47:42;2.40;97.30
75321;DHT22;63920;52.130;5.584;2022-12-11T16:50:08;2.40;97.40
75321;DHT22;63920;52.130;5.584;2022-12-11T16:52:34;2.50;97.80
75321;DHT22;63920;52.130;5.584;2022-12-11T16:55:00;2.50;97.80
75321;DHT22;63920;52.130;5.584;2022-12-11T16:57:25;2.60;98.00
75321;DHT22;63920;52.130;5.584;2022-12-11T16:59:52;2.60;97.80
75321;DHT22;63920;52.130;5.584;2022-12-11T17:02:19;2.60;97.30
75321;DHT22;63920;52.130;5.584;2022-12-11T17:04:45;2.70;97.20
75321;DHT22;63920;52.130;5.584;2022-12-11T17:07:11;2.70;97.10
75321;DHT22;63920;52.130;5.584;2022-12-11T17:09:36;2.60;96.80
75321;DHT22;63920;52.130;5.584;2022-12-11T17:12:03;2.50;97.00
75321;DHT22;63920;52.130;5.584;2022-12-11T17:14:28;2.50;97.30
75321;DHT22;63920;52.130;5.584;2022-12-11T17:16:54;2.50;97.30